createdAt,value
2023-01-08T08:27:24.806Z,7.90
2023-01-08T08:29:52.920Z,7.90
2023-01-08T08:32:21.045Z,7.90
2023-01-08T08:34:50.685Z,8.00
2023-01-08T08:37:18.829Z,8.10
2023-01-08T08:39:47.045Z,8.20
2023-01-08T08:42:15.108Z,8.20
2023-01-08T08:44:44.636Z,8.20
2023-01-08T08:47:13.729Z,8.30
2023-01-08T08:49:41.790Z,8.30
2023-01-08T08:52:09.808Z,8.30
2023-01-08T08:54:41.547Z,8.30
2023-01-08T08:57:10.166Z,8.30
2023-01-08T08:59:38.404Z,8.40
2023-01-08T09:02:08.610Z,8.40
2023-01-08T09:04:36.920Z,8.50
2023-01-08T09:07:04.978Z,8.50
2023-01-08T09:09:33.057Z,8.40
2023-01-08T09:12:01.170Z,8.50
2023-01-08T09:14:29.226Z,8.50
2023-01-08T09:16:57.306Z,8.50
2023-01-08T09:19:26.874Z,8.50
2023-01-08T09:21:54.909Z,8.50
2023-01-08T09:24:23.037Z,8.60
2023-01-08T09:26:53.617Z,8.60
2023-01-08T09:29:22.185Z,8.60
2023-01-08T09:31:50.362Z,8.70
2023-01-08T09:34:18.788Z,8.70
2023-01-08T09:36:48.250Z,8.70
2023-01-08T09:39:16.272Z,8.70
2023-01-08T09:41:47.466Z,8.80
2023-01-08T09:44:19.464Z,8.80
2023-01-08T09:46:49.178Z,8.90
2023-01-08T09:49:22.491Z,9.00
2023-01-08T09:51:51.983Z,9.00
2023-01-08T09:54:20.422Z,9.10
2023-01-08T09:56:48.650Z,9.20
2023-01-08T09:59:19.505Z,9.40
2023-01-08T10:01:48.777Z,9.50
2023-01-08T10:04:19.528Z,9.70
2023-01-08T10:06:55.601Z,9.90
2023-01-08T10:09:27.361Z,10.10
2023-01-08T10:11:59.124Z,10.20
2023-01-08T10:14:29.512Z,10.30
2023-01-08T10:17:01.475Z,10.50
2023-01-08T10:19:29.525Z,10.70
2023-01-08T10:21:59.357Z,11.00
2023-01-08T10:24:35.182Z,11.20
2023-01-08T10:27:13.439Z,11.50
2023-01-08T10:29:41.589Z,11.70
2023-01-08T10:32:14.693Z,12.00
2023-01-08T10:34:46.371Z,12.00
2023-01-08T10:37:28.662Z,12.30
2023-01-08T10:40:01.401Z,12.50
2023-01-08T10:42:29.701Z,12.70
2023-01-08T10:45:01.136Z,13.00
2023-01-08T10:47:31.953Z,13.00
2023-01-08T10:50:01.324Z,13.00
2023-01-08T10:52:33.684Z,13.20
2023-01-08T10:55:13.812Z,13.20
2023-01-08T10:57:43.667Z,13.30
2023-01-08T11:00:28.166Z,13.30
2023-01-08T11:02:58.151Z,13.50
2023-01-08T11:05:34.682Z,13.50
2023-01-08T11:08:07.026Z,13.50
2023-01-08T11:10:37.625Z,13.30
2023-01-08T11:13:09.055Z,13.30
2023-01-08T11:15:39.231Z,13.50
2023-01-08T11:18:28.739Z,13.70
2023-01-08T11:21:11.535Z,13.90
2023-01-08T11:23:41.021Z,14.10
2023-01-08T11:26:15.101Z,14.20
2023-01-08T11:28:52.337Z,14.20
2023-01-08T11:31:29.893Z,14.00
2023-01-08T11:34:07.961Z,13.80
2023-01-08T11:36:49.329Z,13.70
2023-01-08T11:39:19.816Z,13.60
2023-01-08T11:42:18.755Z,13.60
2023-01-08T11:45:04.199Z,13.50
2023-01-08T11:47:49.896Z,13.50
2023-01-08T11:50:26.224Z,13.70
2023-01-08T11:53:14.164Z,13.50
2023-01-08T11:55:53.925Z,13.40
2023-01-08T11:58:35.283Z,13.40
2023-01-08T12:01:19.190Z,13.40
2023-01-08T12:03:55.962Z,13.30
2023-01-08T12:06:35.627Z,13.30
2023-01-08T12:09:19.064Z,13.20
2023-01-08T12:11:56.029Z,13.30
2023-01-08T12:14:38.780Z,13.70
2023-01-08T12:17:31.965Z,13.90
2023-01-08T12:20:16.966Z,13.90
2023-01-08T12:22:54.149Z,13.50
2023-01-08T12:25:39.547Z,13.20
2023-01-08T12:28:19.174Z,13.00
2023-01-08T12:30:56.330Z,13.00
2023-01-08T12:33:46.547Z,12.80
2023-01-08T12:36:19.990Z,12.90
2023-01-08T12:38:55.547Z,12.90
2023-01-08T12:41:25.879Z,12.70
2023-01-08T12:43:58.944Z,12.40
2023-01-08T12:46:32.948Z,12.10
2023-01-08T12:49:01.944Z,11.80
2023-01-08T12:51:36.320Z,11.70
2023-01-08T12:54:13.277Z,11.60
2023-01-08T12:56:47.486Z,11.50
2023-01-08T12:59:38.589Z,11.50
2023-01-08T13:02:20.396Z,11.50
2023-01-08T13:04:49.065Z,11.40
2023-01-08T13:07:21.430Z,11.40
2023-01-08T13:09:56.988Z,11.40
2023-01-08T13:12:34.399Z,11.50
2023-01-08T13:15:04.541Z,11.60
2023-01-08T13:17:32.938Z,11.80
2023-01-08T13:20:03.064Z,12.10
2023-01-08T13:22:33.425Z,12.30
2023-01-08T13:25:28.745Z,12.50
2023-01-08T13:27:57.479Z,12.50
2023-01-08T13:30:40.631Z,12.70
2023-01-08T13:33:37.337Z,12.90
2023-01-08T13:36:22.838Z,12.90
2023-01-08T13:39:07.561Z,12.90
2023-01-08T13:41:38.823Z,13.00
2023-01-08T13:44:15.036Z,13.10
2023-01-08T13:46:44.606Z,13.20
2023-01-08T13:49:24.907Z,13.00
2023-01-08T13:51:53.003Z,12.70
2023-01-08T13:54:24.370Z,12.60
2023-01-08T13:56:55.837Z,12.40
2023-01-08T13:59:37.727Z,12.50
2023-01-08T14:02:23.953Z,12.50
2023-01-08T14:04:52.632Z,12.40
2023-01-08T14:07:21.043Z,12.20
2023-01-08T14:09:49.098Z,12.00
2023-01-08T14:12:20.400Z,11.90
2023-01-08T14:14:51.814Z,11.70
2023-01-08T14:17:24.006Z,11.50
2023-01-08T14:19:52.133Z,11.50
2023-01-08T14:22:23.810Z,11.40
2023-01-08T14:24:56.608Z,11.30
2023-01-08T14:27:27.038Z,11.20
2023-01-08T14:29:55.193Z,11.20
2023-01-08T14:32:28.197Z,11.40
2023-01-08T14:34:58.937Z,11.70
2023-01-08T14:37:27.229Z,11.90
2023-01-08T14:39:55.465Z,12.10
2023-01-08T14:42:47.267Z,12.50
2023-01-08T14:45:21.308Z,12.60
2023-01-08T14:47:54.277Z,12.30
2023-01-08T14:50:26.093Z,11.90
2023-01-08T14:52:56.346Z,11.60
2023-01-08T14:55:25.120Z,11.50
2023-01-08T14:57:55.447Z,11.30
2023-01-08T15:00:26.405Z,11.30
2023-01-08T15:07:10.835Z,11.20
2023-01-08T15:09:38.963Z,11.00
2023-01-08T15:12:08.562Z,11.00
2023-01-08T15:14:37.340Z,11.00
2023-01-08T15:17:11.576Z,11.00
